航空気象通報

ウインドサーファーのための航空気象通報による風予報です。

11/30-12/1の航空気象通報(国内、海外)

2010年11月30日 23時58分36秒 | TAF
羽田空港
TAF RJTT 300844Z 3009/0112 20008KT 9999 FEW030
BECMG 3012/3014 32006KT
BECMG 0100/0103 03010KT
日本時間30日18-21時:200度から8ノットの風
21-23時:風が変化
23時-1日09時:320度から6ノットの風
09-12時:風が変化
12-21時:030度から10ノットの風


富士山静岡空港
TAF RJNS 300839Z 3009/0112 27010KT 9999 FEW030
BECMG 0100/0103 05006KT
日本時間30日18時-1日09時:270度から10ノットの風
09-12時:風が変化
12-21時:050度から6ノットの風


那覇空港
TAF AMD ROAH 301211Z 3012/0112 29008KT 9999 FEW020
BECMG 0100/0103 35012KT
日本時間30日18時-1日09時:290度から8ノットの風
09-12時:風が変化
12-21時:350度から12ノットの風


マウイのカフルイ空港
TAF PHOG 301133Z 3012/0112 10003KT P6SM FEW030
FM302000 05013G20KT P6SM FEW030 SCT050
FM010500 05010KT P6SM FEW030
ハワイ時間30日02-10時:100度から3ノットの風
10-19時:050度から13ノット、突風20ノット
19時-1日02時:050度から10ノットの風


サイパン空港
TAF PGSN 301124Z 3012/0112 08013KT P6SM VCSH SCT018 SCT050 SCT110
マリアナ時間30日22時-1日22時:080度から13ノットの風
コメント
この記事をはてなブックマークに追加

11/29-11/30の航空気象通報(国内、海外)

2010年11月29日 23時20分36秒 | TAF
羽田空港
TAF RJTT 290841Z 2909/3012 35010KT 9999 FEW030
BECMG 3000/3003 16008KT
日本時間29日18時-30日09時:350度から10ノットの風
09-12時:風が変化
12-21時:160度から8ノットの風


富士山静岡空港
TAF RJNS 290840Z 2909/3012 27012KT 9999 FEW030
BECMG 2918/2921 34008KT
BECMG 3000/3003 18006KT
BECMG 3006/3009 26008KT
日本時間29日18時-30日03時:270度から12ノットの風
03-06時:風が変化
06-09時:340度から8ノットの風
09-12時:風が変化
12-15時:180度から6ノットの風
15-18時:風が変化
18-21時:260度から8ノットの風


那覇空港
TAF ROAH 290842Z 2909/3012 11010KT 9999 FEW025 SCT045
BECMG 3006/3009 17014KT
TEMPO 3006/3012 4000 SHRA
日本時間29日18時-30日15時:110度から10ノットの風
15-18時:風が変化
18-21時:170度から14ノットの風

但し、20日15-21時の間:一時、

マウイのカフルイ空港
TAF PHOG 291213Z 2912/3012 05005KT P6SM VCSH FEW030 SCT050
FM292000 03012KT P6SM SCT050
ハワイ時間29日02-10時:050度から5ノットの風
10時-30日02時:030度から12ノットの風


サイパン空港
TAF PGSN 291120Z 2912/3012 07011G20KT P6SM VCSH SCT020 SCT035
マリアナ時間29日22時-30日22時:070度から11ノット、突風20ノット

コメント
この記事をはてなブックマークに追加

11/28-11/29の航空気象通報(国内、海外)

2010年11月28日 22時22分35秒 | TAF
羽田空港
TAF RJTT 280838Z 2809/2912 36012KT 9999 FEW030 SCT050
BECMG 2900/2903 20010KT
BECMG 2909/2912 35009KT
日本時間28日18時-29日09時:360度から12ノットの風
09-12時:風が変化
12-18時:200度から10ノットの風
18-21時:風が変化
21時:350度から9ノットの風


富士山静岡空港
TAF RJNS 280838Z 2809/2912 27015KT 9999 FEW030
TEMPO 2809/2811 27018G28KT
TEMPO 2900/2909 27020G30KT
日本時間28日18時-29日21時:270度から15ノットの風
但し、28日18-20時の間:ときどき、270度から18ノット、突風28ノット
但し、29日00-18時の間:ときどき、270度から20ノット、突風30ノット


那覇空港
TAF ROAH 280841Z 2809/2912 06008KT 9999 FEW030
BECMG 2900/2903 10010KT
日本時間28日00時-29日09時:060度から8ノットの風
09-21時:100度から10ノットの風


マウイのカフルイ空港
TAF PHOG 281135Z 2812/2912 05006KT P6SM VCSH SCT030 BKN045
FM282000 04012G20KT P6SM SCT035 SCT050
FM290300 04008KT P6SM SCT035 SCT050
FM290600 05005KT P6SM SCT035 SCT050
ハワイ時間28日02-10時:050度から6ノットの風

10-17時:040度から12ノット、突風20ノット
17-20時:050度から5ノットの風
20時-29日02時:050度から5ノットの風


サイパン空港
TAF PGSN 281129Z 2812/2912 06011KT P6SM VCSH SCT020 SCT040
FM282200 07012G22KT P6SM VCSH SCT022 SCT050
マリアナ時間28日22時-29日08時:060度から11ノットの風
08-22時:070度から12ノット、突風22ノット

コメント
この記事をはてなブックマークに追加

11/27-11/28の航空気象通報(国内、海外)

2010年11月27日 19時22分23秒 | TAF
羽田空港
TAF RJTT 270841Z 2709/2812 09010KT 9999 FEW030
BECMG 2714/2716 23010KT
TEMPO 2718/2724 23018G30KT
BECMG 2806/2809 34012KT
日本時間27日18-23時:090度から10ノットの風
23時-28日01時:風が変化
01-15時:230度から10ノットの風
但し、03-09時の間:ときどき、230度から18ノット、突風30ノット
15-18時:風が変化
18-21時:340度から12ノットの風


富士山静岡空港
TAF RJNS 270839Z 2709/2812 27012KT 9999 FEW030
TEMPO 2800/2809 27020G30KT
日本時間27日18時-28日21時:270度から12ノットの風
但し、09-18時の間:ときどき、270度から20ノット、突風30ノット


那覇空港
TAF ROAH 270849Z 2709/2812 04008KT 9999 FEW035
日本時間27日00時-28日21時:040度から8ノットの風


マウイのカフルイ空港
TAF PHOG 271137Z 2712/2812 05012KT P6SM SCT050
FM271900 06015G25KT P6SM SCT050
FM280500 05010KT P6SM SCT050
ハワイ時間27日02-09時:050度から12ノットの風
09-19時:060度から15ノット、突風25ノット
19時-28日02時:050度から10ノットの風


サイパン空港
TAF PGSN 271122Z 2712/2812 08008KT P6SM FEW020
FM280000 08011KT P6SM VCSH FEW018 SCT040
マリアナ時間27日22時-28日10時:080度から8ノットの風
10-22時:080度から11ノットの風
コメント
この記事をはてなブックマークに追加

11/26-11/27の航空気象通報(国内、海外)

2010年11月26日 22時40分47秒 | TAF
羽田空港
TAF RJTT 260839Z 2609/2712 05008KT 9999 FEW030 BKN050
BECMG 2610/2612 35014KT
BECMG 2703/2706 09006KT
日本時間26日18-19時:050度から8ノットの風
19-21時:風が変化
21時-27日12時:350度から14ノットの風
12-15時:風が変化
15-21時:090度から6ノットの風


富士山静岡空港
TAF RJNS 260842Z 2609/2712 27010KT 9999 FEW010 SCT030
BECMG 2613/2615 34006KT
BECMG 2700/2703 24010KT
日本時間26日18-22時:270度から10ノットの風
22-24時:風が変化
27日00-09時:340度から6ノットの風
09-15時:風が変化
15-21時:240度から10ノットの風


那覇空港
TAF ROAH 260841Z 2609/2712 02015KT 9999 FEW030
日本時間26日00時-27日21時:020度から15ノットの風


マウイのカフルイ空港
TAF PHOG 261138Z 2612/2712 05009G15KT P6SM FEW030 SCT050
FM261800 06016G23KT P6SM FEW045
FM270500 06010KT P6SM FEW050
ハワイ時間26日02-08時:050度から9ノット、突風15ノット
08-19時:060度から16ノット、突風23ノット
19時-27日02時:060度から10ノットの風


サイパン空港
TAF PGSN 261120Z 2612/2712 09008KT P6SM VCSH SCT020 SCT120
FM262200 08012KT P6SM VCSH SCT018 SCT120
マリアナ時間26日22時-27日08時:090度から8ノットの風
08-22時:080度から12ノットの風
コメント
この記事をはてなブックマークに追加